Latest Weather Observations for Cabramurra

IDN60801

Issued at 8:32 pm EST Thursday 3 September 2015 (issued every 30 minutes, with the page automatically refreshed every 10 minutes)

About weather observations | Map of weather stations | Latest weather observations for NSW | Other Formats
Station Details ID: 072161 Name: CABRAMURRA SMHEA AWS Lat: -35.94 Lon: 148.38 Height: 1482.4 m
Data from the previous 72 hours. | See also: Recent months at Cabramurra
Date/Time
EST
Temp
°C
App
Temp
°C
Dew
Point
Rel
Hum
%
Delta-T
°C
Wind Press
QNH
hPa
Press
MSL
hPa
Rain
since 9 am
mm
Dir
 
Spd
km/h
Gust
km/h
Spd
kts
Gust
kts
03/08:30pm 2.7 -5.5 0.1 83 1.1 SE 33 46 18 25 - - 1.6
03/08:22pm 2.6 -5.4 0.2 84 1.0 ESE 32 46 17 25 - - 1.6
03/08:00pm 2.6 -3.0 0.2 84 1.0 SE 19 28 10 15 - - 1.6
03/07:30pm 2.7 -1.7 0.6 86 0.9 SSE 13 20 7 11 - - 1.6
03/07:00pm 2.7 -2.0 0.9 88 0.8 S 15 22 8 12 - - 1.6
03/06:30pm 3.3 -1.7 1.2 86 0.9 SSW 17 26 9 14 - - 1.6
03/06:00pm 3.5 -2.0 1.7 88 0.8 SSE 20 35 11 19 - - 1.6
03/05:30pm 3.7 0.0 2.1 89 0.7 SSE 11 22 6 12 - - 1.6
03/05:00pm 4.0 -2.5 2.4 89 0.7 SSE 26 39 14 21 - - 1.6
03/04:30pm 4.2 -1.4 3.2 93 0.5 S 22 35 12 19 - - 1.6
03/04:00pm 3.3 -0.3 3.2 99 0.0 SSW 11 19 6 10 - - 1.6
03/03:30pm 3.1 -0.1 3.0 99 0.0 NW 9 13 5 7 - - 1.6
03/03:00pm 3.2 0.0 3.1 99 0.0 SSW 9 15 5 8 - - 1.6
03/02:30pm 3.2 -1.1 3.1 99 0.0 SSW 15 24 8 13 - - 1.6
03/02:00pm 3.0 -1.0 2.9 99 0.0 SSW 13 20 7 11 - - 1.6
03/01:30pm 3.1 -0.1 3.0 99 0.0 SSE 9 19 5 10 - - 1.6
03/01:00pm 2.8 -2.6 2.7 99 0.0 SSE 20 39 11 21 - - 1.6
03/12:30pm 2.7 -2.7 2.6 99 0.0 SSE 20 44 11 24 - - 1.6
03/12:00pm 2.3 -2.6 2.2 99 0.0 SSE 17 32 9 17 - - 1.6
03/11:30am 1.7 -3.3 1.6 99 0.0 SSE 17 26 9 14 - - 1.6
03/11:00am 1.1 -2.8 1.0 99 0.0 SSE 11 20 6 11 - - 1.4
03/10:30am 0.8 -4.3 0.7 99 0.0 SSE 17 22 9 12 - - 1.4
03/10:00am 0.9 -3.8 0.8 99 0.0 SE 15 28 8 15 - - 1.4
03/09:30am 0.8 -2.4 0.7 99 0.0 ESE 7 11 4 6 - - 0.8
03/09:00am 0.4 -2.9 0.3 99 0.0 E 7 11 4 6 - - 18.4
03/08:30am 0.2 -2.9 0.1 99 0.0 SSE 6 11 3 6 - - 16.8
03/08:00am 0.5 -3.1 0.4 99 0.0 NNW 9 13 5 7 - - 16.2
03/07:30am 0.9 -2.7 0.8 99 0.0 NW 9 17 5 9 - - 15.2
03/07:00am 1.1 -2.8 1.0 99 0.0 SW 11 15 6 8 - - 13.6
03/06:30am 1.4 -2.9 1.3 99 0.0 NW 13 19 7 10 - - 12.0
03/06:00am 1.3 -4.7 1.2 99 0.0 NW 22 35 12 19 - - 10.8
03/05:30am 2.3 -1.8 2.2 99 0.0 NNW 13 19 7 10 - - 9.2
03/05:00am 2.5 -0.8 2.4 99 0.0 NNE 9 13 5 7 - - 7.4
03/04:30am 2.7 -1.7 2.6 99 0.0 NE 15 22 8 12 - - 6.2
03/04:00am 2.6 -2.8 2.5 99 0.0 ENE 20 26 11 14 - - 6.2
03/03:30am 2.3 -4.3 2.2 99 0.0 ENE 26 32 14 17 - - 6.2
03/03:23am 2.4 -4.9 2.3 99 0.0 ENE 30 48 16 26 - - 6.2
03/03:00am 2.1 -5.7 2.0 99 0.0 E 32 46 17 25 - - 6.0
03/02:30am 2.2 -5.7 2.1 99 0.0 E 33 44 18 24 - - 6.0
03/02:00am 2.3 -5.6 2.2 99 0.0 ENE 33 43 18 23 - - 5.6
03/01:30am 2.6 -6.8 2.5 99 0.0 ENE 41 54 22 29 - - 5.0
03/01:00am 2.7 -5.5 2.6 99 0.0 ENE 35 44 19 24 - - 4.8
03/12:30am 2.9 -4.7 2.8 99 0.0 ENE 32 46 17 25 - - 4.0
03/12:24am 3.1 -3.8 2.8 98 0.1 ENE 28 46 15 25 - - 3.6
03/12:00am 3.2 -2.1 3.1 99 0.0 NE 20 30 11 16 - - 3.6
 
Date/Time
EST
Temp
°C
App
Temp
°C
Dew
Point
Rel
Hum
%
Delta-T
°C
Wind Press
QNH
hPa
Press
MSL
hPa
Rain
since 9 am
mm
Dir
 
Spd
km/h
Gust
km/h
Spd
kts
Gust
kts
02/11:30pm 3.7 -1.3 3.6 99 0.0 NNE 19 30 10 16 - - 2.8
02/11:00pm 3.8 -1.8 3.2 96 0.3 N 22 33 12 18 - - 2.2
02/10:30pm 3.8 -1.5 2.8 93 0.4 NNE 20 30 11 16 - - 1.2
02/10:00pm 3.8 -1.6 2.6 92 0.5 NE 20 30 11 16 - - 1.2
02/09:30pm 4.7 -1.6 1.4 79 1.4 NNE 24 39 13 21 - - 0.0
02/09:00pm 5.4 -0.8 -0.2 67 2.4 N 22 35 12 19 - - 0.0
02/08:30pm 6.0 -1.4 -0.7 62 2.8 NNE 28 39 15 21 - - 0.0
02/08:00pm 5.8 -0.5 -1.1 61 2.8 NNE 22 30 12 16 - - 0.0
02/07:30pm 5.7 0.9 0.3 68 2.3 NNE 15 22 8 12 - - 0.0
02/07:00pm 5.7 0.9 0.3 68 2.3 NNE 15 20 8 11 - - 0.0
02/06:30pm 5.6 1.1 -0.2 66 2.4 NNE 13 19 7 10 - - 0.0
02/06:00pm 5.4 0.7 -1.7 60 2.9 NNE 13 17 7 9 - - 0.0
02/05:30pm 5.8 2.2 -1.8 58 3.1 N 7 9 4 5 - - 0.0
02/05:00pm 6.8 3.0 -1.1 57 3.3 N 9 13 5 7 - - 0.0
02/04:30pm 7.1 3.2 -1.6 54 3.6 N 9 15 5 8 - - 0.0
02/04:00pm 8.6 4.1 -0.2 54 3.8 NNW 13 19 7 10 - - 0.0
02/03:30pm 8.8 2.8 -3.4 42 4.9 NW 19 28 10 15 - - 0.0
02/03:00pm 9.6 4.1 -2.0 44 4.9 NW 17 26 9 14 - - 0.0
02/02:30pm 9.6 4.7 -3.3 40 5.3 NNW 13 20 7 11 - - 0.0
02/02:00pm 10.0 5.7 -2.0 43 5.1 NNW 11 20 6 11 - - 0.0
02/01:30pm 9.7 4.7 -3.9 38 5.5 NNW 13 19 7 10 - - 0.0
02/01:00pm 9.0 4.3 -5.2 36 5.5 NW 11 17 6 9 - - 0.0
02/12:30pm 8.2 3.0 -6.7 34 5.5 NNW 13 20 7 11 - - 0.0
02/12:00pm 8.3 2.6 -7.4 32 5.7 NNW 15 19 8 10 - - 0.0
02/11:30am 8.0 2.9 -9.8 27 6.1 NNW 11 17 6 9 - - 0.0
02/11:00am 7.5 3.0 -6.9 35 5.3 NNW 9 15 5 8 - - 0.0
02/10:30am 7.4 2.9 -11.3 25 6.1 NNW 7 11 4 6 - - 0.0
02/10:00am 8.1 3.1 -22.8 9 7.8 N 7 11 4 6 - - 0.0
02/09:30am 5.9 0.7 -10.3 30 5.3 NNE 11 15 6 8 - - 0.0
02/09:00am 5.9 1.8 -14.7 21 6.4 ENE 4 11 2 6 - - 0.0
02/08:30am 4.7 0.5 -16.3 20 6.1 SE 4 7 2 4 - - 0.0
02/08:00am 4.4 0.8 -19.9 15 6.5 CALM 0 0 0 0 - - 0.0
02/07:30am 3.6 -0.3 -18.5 18 6.0 SSW 2 7 1 4 - - 0.0
02/07:00am 2.9 -1.3 -16.7 22 5.5 NNW 4 9 2 5 - - 0.0
02/06:30am 2.9 -1.9 -17.8 20 5.6 NNW 7 9 4 5 - - 0.0
02/06:00am 2.2 -1.3 -18.4 20 5.4 CALM 0 0 0 0 - - 0.0
02/05:30am 1.6 -2.3 -18.3 21 5.1 NNW 2 7 1 4 - - 0.0
02/05:00am 2.2 -2.1 -18.4 20 5.4 N 4 9 2 5 - - 0.0
02/04:30am 2.4 -2.4 -18.2 20 5.4 N 7 11 4 6 - - 0.0
02/04:00am 2.0 -1.4 -15.9 25 5.0 CALM 0 0 0 0 - - 0.0
02/03:30am 0.6 -2.1 -5.6 63 2.2 CALM 0 0 0 0 - - 0.0
02/03:00am 0.5 -3.0 -1.3 88 0.7 NNW 7 11 4 6 - - 0.0
02/02:30am 0.8 -3.2 -1.9 82 1.1 NNW 9 11 5 6 - - 0.0
02/02:00am 0.8 -2.9 -2.9 76 1.4 NW 7 11 4 6 - - 0.0
02/01:30am 0.7 -2.8 -3.0 76 1.4 WSW 6 7 3 4 - - 0.0
02/01:00am 0.8 -2.6 -0.3 92 0.4 SSE 7 11 4 6 - - 0.0
02/12:30am -0.5 -2.6 -0.6 99 0.0 CALM 0 4 0 2 - - 0.0
02/12:00am -0.4 -3.6 -0.5 99 0.0 WNW 6 11 3 6 - - 0.0
 
Date/Time
EST
Temp
°C
App
Temp
°C
Dew
Point
Rel
Hum
%
Delta-T
°C
Wind Press
QNH
hPa
Press
MSL
hPa
Rain
since 9 am
mm
Dir
 
Spd
km/h
Gust
km/h
Spd
kts
Gust
kts
01/11:30pm 0.7 -2.7 -0.4 92 0.4 SSW 7 9 4 5 - - 0.0
01/11:00pm -0.3 -4.4 -0.4 99 0.0 SE 11 13 6 7 - - 0.0
01/10:30pm 0.1 -1.9 0.0 99 0.0 CALM 0 0 0 0 - - 0.0
01/10:00pm 0.3 -2.8 0.2 99 0.0 NW 6 11 3 6 - - 0.0
01/09:30pm 0.6 -1.3 0.5 99 0.0 CALM 0 0 0 0 - - 0.0
01/09:00pm 0.6 -1.3 0.5 99 0.0 CALM 0 0 0 0 - - 0.0
01/08:30pm 0.8 -1.1 0.7 99 0.0 CALM 0 0 0 0 - - 0.0
01/08:00pm 1.0 -2.0 0.9 99 0.0 WSW 6 9 3 5 - - 0.0
01/07:30pm 1.2 -2.4 0.6 96 0.2 NW 9 11 5 6 - - 0.0
01/07:00pm 1.3 -2.2 1.0 98 0.1 NNE 9 13 5 7 - - 0.0
01/06:30pm 1.7 -0.2 0.8 94 0.4 CALM 0 0 0 0 - - 0.0
01/06:00pm 1.9 -0.1 -0.2 86 0.9 CALM 0 0 0 0 - - 0.0
01/05:30pm 3.7 0.4 -0.1 76 1.6 NW 7 11 4 6 - - 0.0
01/05:00pm 4.6 0.7 -1.2 66 2.4 W 9 15 5 8 - - 0.0
01/04:30pm 5.0 -0.3 -0.8 66 2.4 N 17 22 9 12 - - 0.0
01/04:00pm 5.5 0.0 0.9 72 2.0 N 19 22 10 12 - - 0.0
01/03:30pm 5.8 0.7 0.6 69 2.2 NW 17 22 9 12 - - 0.0
01/03:00pm 5.8 0.0 -1.3 60 2.9 NNW 19 28 10 15 - - 0.0
01/02:30pm 6.3 1.7 -0.7 61 2.9 WNW 13 20 7 11 - - 0.0
01/02:00pm 6.0 1.6 0.1 66 2.5 N 13 20 7 11 - - 0.0
01/01:30pm 5.6 0.8 0.2 68 2.3 NNW 15 20 8 11 - - 0.0
01/01:00pm 5.7 0.1 0.1 67 2.4 NW 19 28 10 15 - - 0.0
01/12:30pm 4.9 -0.5 -1.5 63 2.6 NNW 17 24 9 13 - - 0.0
01/12:00pm 4.7 -1.1 -1.5 64 2.5 NW 19 26 10 14 - - 0.0
01/11:30am 4.1 -1.8 -2.1 64 2.5 NNW 19 30 10 16 - - 0.0
01/11:00am 4.0 -0.6 -1.2 69 2.1 NNW 13 20 7 11 - - 0.0
01/10:30am 4.1 0.0 0.1 75 1.7 NNW 11 17 6 9 - - 0.0
01/10:00am 3.8 -0.1 -1.7 67 2.2 WSW 9 11 5 6 - - 0.0
01/09:30am 3.2 -1.8 -4.5 57 2.8 SSW 13 19 7 10 - - 0.0
01/09:00am 1.9 -3.0 -3.2 69 2.0 SW 13 17 7 9 - - 0.0
01/08:30am 1.1 -4.0 -2.3 78 1.4 SSW 15 22 8 12 - - 0.0
01/08:00am 0.3 -5.3 -2.6 81 1.1 SSW 17 22 9 12 - - 0.0
01/07:30am -0.5 -6.4 -1.9 90 0.5 S 19 20 10 11 - - 0.0
01/07:00am -1.1 -6.6 -1.8 95 0.2 S 17 24 9 13 - - 0.0
01/06:30am -1.5 -6.9 -1.6 99 0.0 S 17 20 9 11 - - 0.0
01/06:00am -1.4 -6.8 -1.5 99 0.0 SSW 17 24 9 13 - - 0.0
01/05:30am -1.0 -6.7 -1.1 99 0.0 SSW 19 24 10 13 - - 0.0
01/05:00am -0.9 -6.6 -1.0 99 0.0 SW 19 28 10 15 - - 0.0
01/04:30am -0.8 -6.5 -0.9 99 0.0 SW 19 24 10 13 - - 0.0
01/04:00am -0.6 -5.9 -0.7 99 0.0 SW 17 20 9 11 - - 0.0
01/03:30am -0.5 -4.7 -0.6 99 0.0 SW 11 17 6 9 - - 0.0
01/03:00am -0.2 -4.3 -0.3 99 0.0 W 11 17 6 9 - - 0.0
01/02:30am -0.3 -4.4 -0.4 99 0.0 SSW 11 17 6 9 - - 0.0
01/02:00am -0.2 -4.8 -0.8 96 0.2 SSW 13 17 7 9 - - 0.0
01/01:30am -0.4 -4.9 -0.5 99 0.0 SSW 13 19 7 10 - - 0.0
01/01:00am -0.6 -4.4 -0.7 99 0.0 SSW 9 13 5 7 - - 0.0
01/12:30am -1.0 -5.2 -1.1 99 0.0 SSW 11 13 6 7 - - 0.0
01/12:00am -0.6 -4.0 -0.7 99 0.0 SW 7 9 4 5 - - 0.0
 
Date/Time
EST
Temp
°C
App
Temp
°C
Dew
Point
Rel
Hum
%
Delta-T
°C
Wind Press
QNH
hPa
Press
MSL
hPa
Rain
since 9 am
mm
Dir
 
Spd
km/h
Gust
km/h
Spd
kts
Gust
kts
31/11:30pm -0.6 -3.4 -0.7 99 0.0 NNW 4 7 2 4 - - 0.0
31/11:00pm -0.5 -4.7 -0.6 99 0.0 SSW 11 15 6 8 - - 0.0
31/10:30pm -0.6 -4.4 -0.7 99 0.0 S 9 11 5 6 - - 0.0
31/10:00pm -0.4 -4.2 -0.5 99 0.0 SSW 9 11 5 6 - - 0.0
31/09:30pm -0.3 -4.1 -0.4 99 0.0 SSW 9 13 5 7 - - 0.0
31/09:00pm 0.1 -3.6 0.0 99 0.0 SW 9 11 5 6 - - 0.0

Other Formats:

Comma delimited format used in spreadsheet applications
http://www.bom.gov.au/fwo/IDN60801/IDN60801.95916.axf

JavaScript Object Notation format (JSON) in row-major order
http://www.bom.gov.au/fwo/IDN60801/IDN60801.95916.json